Time;durP1;ratioP1;P1;durP2;ratioP2;P2;SDS_P1;SDS_P2;PMS_P1;PMS_P2;Temp;Humidity;BMP_temperature;BMP_pressure;BME280_temperature;BME280_humidity;BME280_pressure;Samples;Min_cycle;Max_cycle;Signal;HPM_P1;HPM_P2
2021/11/04 00:00:26;;;;;;;23.05;14.90;;;6.70;99.90;;;;;;5113670;28;20157;-72
2021/11/04 00:02:53;;;;;;;27.88;16.15;;;6.80;99.90;;;;;;5113570;28;20039;-72
2021/11/04 00:05:19;;;;;;;19.92;13.82;;;6.80;99.90;;;;;;5113654;28;20058;-72
2021/11/04 00:07:47;;;;;;;19.10;12.70;;;6.70;99.90;;;;;;5112334;28;20491;-72
2021/11/04 00:10:13;;;;;;;19.58;13.07;;;6.70;99.90;;;;;;5113238;28;20168;-72
2021/11/04 00:12:39;;;;;;;20.20;13.05;;;6.70;99.90;;;;;;5113856;28;20108;-72
2021/11/04 00:15:05;;;;;;;21.63;14.25;;;6.70;99.90;;;;;;5113458;28;20040;-71
2021/11/04 00:17:31;;;;;;;21.48;14.77;;;6.70;99.90;;;;;;5112290;28;20036;-72
2021/11/04 00:19:56;;;;;;;22.40;14.55;;;6.70;99.90;;;;;;5114464;28;20062;-72
2021/11/04 00:22:22;;;;;;;22.42;15.52;;;6.70;99.90;;;;;;5117558;28;20035;-72
2021/11/04 00:24:48;;;;;;;25.10;16.73;;;6.60;99.90;;;;;;5117516;28;20164;-72
2021/11/04 00:27:13;;;;;;;31.05;18.23;;;6.60;99.90;;;;;;5116341;28;20459;-72
2021/11/04 00:29:39;;;;;;;26.35;17.63;;;6.50;99.90;;;;;;5098808;28;20089;-72
2021/11/04 00:32:05;;;;;;;25.15;16.15;;;6.50;99.90;;;;;;5096914;28;20492;-72
2021/11/04 00:34:30;;;;;;;28.95;17.98;;;6.50;99.90;;;;;;5095935;28;20488;-71
2021/11/04 00:36:57;;;;;;;28.08;17.50;;;6.50;99.90;;;;;;5096938;28;20039;-72
2021/11/04 00:39:24;;;;;;;25.92;17.05;;;6.40;99.90;;;;;;5096861;28;20036;-72
2021/11/04 00:41:49;;;;;;;26.80;17.88;;;6.40;99.90;;;;;;5095970;28;20048;-72
2021/11/04 00:44:15;;;;;;;27.75;17.80;;;6.40;99.90;;;;;;5096048;28;20055;-72
2021/11/04 00:46:41;;;;;;;26.20;16.92;;;6.40;99.90;;;;;;5097143;28;20036;-72
2021/11/04 00:49:07;;;;;;;23.88;16.25;;;6.40;99.90;;;;;;5096716;28;20125;-72
2021/11/04 00:51:33;;;;;;;26.08;16.55;;;6.50;99.90;;;;;;5096712;28;20186;-72
2021/11/04 00:53:58;;;;;;;22.05;14.70;;;6.50;99.90;;;;;;5096873;28;20108;-72
2021/11/04 00:56:24;;;;;;;20.50;14.70;;;6.50;99.90;;;;;;5095507;28;20117;-71
2021/11/04 00:58:50;;;;;;;23.95;15.73;;;6.60;99.90;;;;;;5095053;28;20044;-72
2021/11/04 01:01:17;;;;;;;22.23;14.77;;;6.60;99.90;;;;;;5096505;28;20050;-71
2021/11/04 01:03:43;;;;;;;23.33;15.13;;;6.60;99.90;;;;;;5096859;28;20040;-72
2021/11/04 01:06:09;;;;;;;23.38;15.30;;;6.60;99.90;;;;;;5096411;28;20035;-71
2021/11/04 01:08:34;;;;;;;25.45;17.05;;;6.60;99.90;;;;;;5094715;28;20039;-72
2021/11/04 01:11:00;;;;;;;25.02;16.98;;;6.60;99.90;;;;;;5096470;28;20042;-71
2021/11/04 01:13:25;;;;;;;24.15;16.02;;;6.60;99.90;;;;;;5095247;28;20040;-71
2021/11/04 01:15:51;;;;;;;24.38;15.75;;;6.60;99.90;;;;;;5096206;28;20035;-72
2021/11/04 01:18:17;;;;;;;27.23;17.42;;;6.60;99.90;;;;;;5096014;28;20400;-72
2021/11/04 01:20:42;;;;;;;30.10;18.15;;;6.60;99.90;;;;;;5096222;28;20093;-71
2021/11/04 01:23:08;;;;;;;26.25;17.30;;;6.60;99.90;;;;;;5096203;28;20071;-71
2021/11/04 01:25:33;;;;;;;31.92;18.50;;;6.60;99.90;;;;;;5096416;28;20438;-71
2021/11/04 01:27:59;;;;;;;42.00;18.33;;;6.60;99.90;;;;;;5095347;28;20044;-71
2021/11/04 01:30:25;;;;;;;29.58;18.55;;;6.60;99.90;;;;;;5094510;28;20148;-71
2021/11/04 01:32:50;;;;;;;29.85;18.60;;;6.60;99.90;;;;;;5095974;28;20052;-71
2021/11/04 01:35:16;;;;;;;27.77;17.55;;;6.60;99.90;;;;;;5095766;28;20038;-71
2021/11/04 01:37:42;;;;;;;30.60;18.80;;;6.60;99.90;;;;;;5077748;28;20039;-71
2021/11/04 01:40:08;;;;;;;33.78;18.67;;;6.60;99.90;;;;;;5095786;28;20032;-71
2021/11/04 01:42:34;;;;;;;27.58;16.60;;;6.60;99.90;;;;;;5096149;28;20043;-71
2021/11/04 01:45:00;;;;;;;27.92;17.70;;;6.70;99.90;;;;;;5095924;28;20062;-71
2021/11/04 01:47:26;;;;;;;27.60;18.40;;;6.70;99.90;;;;;;5095800;28;20496;-71
2021/11/04 01:49:51;;;;;;;28.40;16.90;;;6.60;99.90;;;;;;5095152;28;20047;-71
2021/11/04 01:52:17;;;;;;;29.92;18.08;;;6.70;99.90;;;;;;5095653;28;20481;-71
2021/11/04 01:54:43;;;;;;;30.52;17.67;;;6.70;99.90;;;;;;5095461;28;20044;-71
2021/11/04 01:57:08;;;;;;;41.42;18.83;;;6.60;99.90;;;;;;5095750;28;20526;-71
2021/11/04 01:59:34;;;;;;;30.35;18.65;;;6.70;99.90;;;;;;5093665;28;20072;-71
2021/11/04 02:02:09;;;;;;;30.35;18.50;;;6.70;99.90;;;;;;5094544;28;20048;-71
2021/11/04 02:04:53;;;;;;;67.55;23.27;;;6.70;99.90;;;;;;5095732;28;20051;-71
2021/11/04 02:07:24;;;;;;;28.48;17.05;;;6.60;99.90;;;;;;5095584;28;20035;-71
2021/11/04 02:10:21;;;;;;;25.92;16.45;;;6.60;99.90;;;;;;5093755;28;20041;-71
2021/11/04 02:13:09;;;;;;;28.58;17.77;;;6.60;99.90;;;;;;5076534;28;20188;-71
2021/11/04 02:15:37;;;;;;;35.50;18.65;;;6.70;99.90;;;;;;5094094;28;20036;-71
2021/11/04 02:18:07;;;;;;;28.83;17.60;;;6.70;99.90;;;;;;5094987;28;20047;-71
2021/11/04 02:21:31;;;;;;;27.90;17.48;;;6.70;99.90;;;;;;5095112;28;20039;-71
2021/11/04 02:24:13;;;;;;;25.37;15.67;;;6.70;99.90;;;;;;5032735;28;20049;-71
2021/11/04 02:26:41;;;;;;;28.80;17.35;;;6.70;99.90;;;;;;5016168;28;20284;-71
2021/11/04 02:29:07;;;;;;;28.92;17.15;;;6.60;99.90;;;;;;5069160;28;20056;-71
2021/11/04 02:31:34;;;;;;;26.75;17.25;;;6.60;99.90;;;;;;5094830;28;20052;-71
2021/11/04 02:34:00;;;;;;;54.38;18.25;;;6.60;99.90;;;;;;5094707;28;20036;-71
2021/11/04 02:36:26;;;;;;;28.67;17.63;;;6.60;99.90;;;;;;5094815;28;20376;-71
2021/11/04 02:38:53;;;;;;;61.63;20.13;;;6.60;99.90;;;;;;5093200;28;20043;-71
2021/11/04 02:41:19;;;;;;;57.55;19.80;;;6.50;99.90;;;;;;5094569;28;20036;-71
2021/11/04 02:43:46;;;;;;;28.92;17.05;;;6.50;99.90;;;;;;5075931;28;20047;-71
2021/11/04 02:46:13;;;;;;;26.30;15.90;;;6.50;99.90;;;;;;5076208;28;20157;-71
2021/11/04 02:48:39;;;;;;;26.45;16.30;;;6.60;99.90;;;;;;5094119;28;20044;-71
2021/11/04 02:51:05;;;;;;;27.10;17.13;;;6.60;99.90;;;;;;5094738;28;20097;-71
2021/11/04 02:53:32;;;;;;;28.52;16.77;;;6.60;99.90;;;;;;5094472;28;20044;-71
2021/11/04 02:55:57;;;;;;;25.20;15.82;;;6.60;99.90;;;;;;5094992;28;20032;-71
2021/11/04 02:58:25;;;;;;;28.60;17.40;;;6.60;99.90;;;;;;5094725;28;20035;-71
2021/11/04 03:00:55;;;;;;;27.13;17.15;;;6.60;99.90;;;;;;5093873;28;20036;-71
2021/11/04 03:03:20;;;;;;;37.53;18.08;;;6.70;99.90;;;;;;5075798;28;20044;-71
2021/11/04 03:05:46;;;;;;;80.38;20.67;;;6.70;99.90;;;;;;5094397;28;20054;-71
2021/11/04 03:08:12;;;;;;;78.68;20.35;;;6.60;99.90;;;;;;5094157;28;20089;-71
2021/11/04 03:10:38;;;;;;;28.40;16.83;;;6.50;99.90;;;;;;5093754;28;20036;-71
2021/11/04 03:13:04;;;;;;;31.35;18.52;;;6.50;99.90;;;;;;5093865;28;20046;-71
2021/11/04 03:15:35;;;;;;;27.75;16.58;;;6.50;99.90;;;;;;5093815;28;20035;-71
2021/11/04 03:18:01;;;;;;;66.47;19.02;;;6.50;99.90;;;;;;5092992;28;20052;-71
2021/11/04 03:20:29;;;;;;;38.05;16.63;;;6.60;99.90;;;;;;5092535;28;20123;-71
2021/11/04 03:22:56;;;;;;;48.53;18.17;;;6.50;99.90;;;;;;5093775;28;20498;-71
2021/11/04 03:25:21;;;;;;;110.18;21.90;;;6.50;99.90;;;;;;5093971;28;20044;-71
2021/11/04 03:27:50;;;;;;;91.88;19.80;;;6.40;99.90;;;;;;5093826;28;20365;-71
2021/11/04 03:30:21;;;;;;;102.40;20.25;;;6.40;99.90;;;;;;5093538;28;20032;-71
2021/11/04 03:32:48;;;;;;;103.15;19.33;;;6.40;99.90;;;;;;5093781;28;20048;-71
2021/11/04 03:35:16;;;;;;;43.60;15.82;;;6.40;99.90;;;;;;5093785;28;20040;-71
2021/11/04 03:37:45;;;;;;;60.25;16.92;;;6.40;99.90;;;;;;5093041;28;20032;-71
2021/11/04 03:40:11;;;;;;;38.10;14.00;;;6.40;99.90;;;;;;5093198;28;20036;-71
2021/11/04 03:42:39;;;;;;;21.80;14.52;;;6.40;99.90;;;;;;5093574;28;20123;-71
2021/11/04 03:45:06;;;;;;;45.65;14.52;;;6.40;99.90;;;;;;5093421;28;20373;-71
2021/11/04 03:47:32;;;;;;;23.70;13.45;;;6.40;99.90;;;;;;5093564;28;20039;-71
2021/11/04 03:49:59;;;;;;;25.73;14.07;;;6.40;99.90;;;;;;5093112;28;20396;-71
2021/11/04 03:52:27;;;;;;;20.48;13.68;;;6.40;99.90;;;;;;5092300;28;20044;-71
2021/11/04 03:54:53;;;;;;;19.50;13.05;;;6.30;99.90;;;;;;5093274;28;20404;-71
2021/11/04 03:57:24;;;;;;;18.55;12.52;;;6.30;99.90;;;;;;5093422;28;20032;-71
2021/11/04 03:59:50;;;;;;;20.67;12.85;;;6.30;99.90;;;;;;5093208;28;20047;-71
2021/11/04 04:02:16;;;;;;;19.58;12.05;;;6.30;99.90;;;;;;5093474;28;20079;-71
2021/11/04 04:04:49;;;;;;;18.73;12.57;;;6.30;99.90;;;;;;5093423;28;20068;-71
2021/11/04 04:07:14;;;;;;;17.90;11.68;;;6.30;99.90;;;;;;5093233;28;20043;-71
2021/11/04 04:09:40;;;;;;;19.83;12.07;;;6.30;99.90;;;;;;5091961;28;20044;-71
2021/11/04 04:12:06;;;;;;;21.10;13.32;;;6.40;99.90;;;;;;5093133;28;20039;-71
2021/11/04 04:14:32;;;;;;;17.83;12.82;;;6.30;99.90;;;;;;5092313;28;20404;-71
2021/11/04 04:16:57;;;;;;;20.17;13.55;;;6.30;99.90;;;;;;5093296;28;20032;-71
2021/11/04 04:19:23;;;;;;;24.75;14.55;;;6.30;99.90;;;;;;5091888;28;20048;-71
2021/11/04 04:21:48;;;;;;;37.65;15.98;;;6.30;99.90;;;;;;5093101;28;20036;-71
2021/11/04 04:24:14;;;;;;;23.70;15.10;;;6.20;99.90;;;;;;5093065;28;20467;-71
2021/11/04 04:26:40;;;;;;;25.52;15.73;;;6.20;99.90;;;;;;5093266;28;20044;-71
2021/11/04 04:29:05;;;;;;;21.45;14.98;;;6.20;99.90;;;;;;5091637;28;20071;-71
2021/11/04 04:31:31;;;;;;;21.85;14.38;;;6.30;99.90;;;;;;5093268;28;20071;-71
2021/11/04 04:33:57;;;;;;;19.67;12.05;;;6.30;99.90;;;;;;5091668;28;20503;-71
2021/11/04 04:36:22;;;;;;;21.30;14.15;;;6.30;99.90;;;;;;5093314;28;20059;-71
2021/11/04 04:38:48;;;;;;;24.23;14.82;;;6.40;99.90;;;;;;5092552;28;20043;-71
2021/11/04 04:41:13;;;;;;;21.30;13.93;;;6.30;99.90;;;;;;5092884;28;20090;-71
2021/11/04 04:43:39;;;;;;;25.55;15.25;;;6.30;99.90;;;;;;5093144;28;20082;-71
2021/11/04 04:46:05;;;;;;;21.52;14.32;;;6.30;99.90;;;;;;5093137;28;20040;-71
2021/11/04 04:48:30;;;;;;;19.33;12.98;;;6.40;99.90;;;;;;5092614;28;20476;-71
2021/11/04 04:50:56;;;;;;;21.02;13.25;;;6.30;99.90;;;;;;5091673;28;20047;-71
2021/11/04 04:53:21;;;;;;;20.13;13.30;;;6.40;99.90;;;;;;5092564;28;20044;-71
2021/11/04 04:55:47;;;;;;;19.17;12.98;;;6.30;99.90;;;;;;5092846;28;20040;-71
2021/11/04 04:58:12;;;;;;;19.52;13.15;;;6.40;99.90;;;;;;5093009;28;20044;-71
2021/11/04 05:00:39;;;;;;;20.98;13.50;;;6.40;99.90;;;;;;5092414;28;20036;-71
2021/11/04 05:03:05;;;;;;;18.92;13.70;;;6.40;99.90;;;;;;5091903;28;20129;-71
2021/11/04 05:05:31;;;;;;;18.38;12.57;;;6.40;99.90;;;;;;5093746;28;20040;-71
2021/11/04 05:07:57;;;;;;;20.38;13.27;;;6.40;99.90;;;;;;5096793;28;20036;-71
2021/11/04 05:10:22;;;;;;;20.75;14.10;;;6.40;99.90;;;;;;5096163;28;20040;-71
2021/11/04 05:12:48;;;;;;;20.85;13.00;;;6.40;99.90;;;;;;5096534;28;20044;-71
2021/11/04 05:15:15;;;;;;;17.92;11.95;;;6.30;99.90;;;;;;5096548;28;20036;-71
2021/11/04 05:17:40;;;;;;;19.00;13.18;;;6.30;99.90;;;;;;5096523;28;20059;-71
2021/11/04 05:20:08;;;;;;;20.15;12.35;;;6.30;99.90;;;;;;5095859;28;20480;-71
2021/11/04 05:22:33;;;;;;;18.80;13.00;;;6.30;99.90;;;;;;5095942;28;20048;-71
2021/11/04 05:24:59;;;;;;;17.75;13.02;;;6.30;99.90;;;;;;5096128;28;20028;-71
2021/11/04 05:27:26;;;;;;;20.00;13.23;;;6.30;99.90;;;;;;5096161;28;20048;-71
2021/11/04 05:29:52;;;;;;;25.52;15.07;;;6.20;99.90;;;;;;5096001;28;20127;-71
2021/11/04 05:32:18;;;;;;;22.52;13.30;;;6.20;99.90;;;;;;5095833;28;20044;-71
2021/11/04 05:34:44;;;;;;;62.45;16.60;;;6.20;99.90;;;;;;5095817;28;20044;-71
2021/11/04 05:37:10;;;;;;;19.95;13.52;;;6.10;99.90;;;;;;5095769;28;20034;-71
2021/11/04 05:39:36;;;;;;;31.67;15.93;;;6.10;99.90;;;;;;5095515;28;20036;-71
2021/11/04 05:42:03;;;;;;;22.15;13.50;;;6.10;99.90;;;;;;5096018;28;20119;-71
2021/11/04 05:44:29;;;;;;;21.23;14.00;;;6.10;99.90;;;;;;5095864;28;20036;-71
2021/11/04 05:46:56;;;;;;;18.88;13.18;;;6.10;99.90;;;;;;5095707;28;20549;-71
2021/11/04 05:49:21;;;;;;;19.05;12.25;;;6.20;99.90;;;;;;5095518;28;20040;-71
2021/11/04 05:51:47;;;;;;;16.77;11.75;;;6.10;99.90;;;;;;5095699;28;20093;-71
2021/11/04 05:54:13;;;;;;;61.60;15.65;;;6.10;99.90;;;;;;5095519;28;20036;-71
2021/11/04 05:56:39;;;;;;;91.55;16.48;;;6.00;99.90;;;;;;5095374;28;20036;-71
2021/11/04 05:59:05;;;;;;;21.92;11.43;;;6.00;99.90;;;;;;5095133;28;20036;-71
2021/11/04 06:01:30;;;;;;;82.28;15.88;;;6.00;99.90;;;;;;5094084;28;20077;-71
2021/11/04 06:03:56;;;;;;;121.22;17.60;;;6.00;99.90;;;;;;5095233;28;20122;-71
2021/11/04 06:06:22;;;;;;;152.85;23.48;;;6.00;99.90;;;;;;5095287;28;20035;-71
2021/11/04 06:08:48;;;;;;;18.23;11.70;;;5.90;99.90;;;;;;5094848;28;20040;-71
2021/11/04 06:11:13;;;;;;;29.33;12.35;;;5.90;99.90;;;;;;5093815;28;20051;-71
2021/11/04 06:13:39;;;;;;;14.57;10.32;;;5.90;99.90;;;;;;5095683;28;20036;-71
2021/11/04 06:16:12;;;;;;;22.42;11.57;;;5.80;99.90;;;;;;5095579;28;20028;-71
2021/11/04 06:18:37;;;;;;;13.98;10.10;;;5.80;99.90;;;;;;5093511;28;20040;-71
2021/11/04 06:21:03;;;;;;;27.83;10.38;;;5.80;99.90;;;;;;5095337;28;20036;-71
2021/11/04 06:23:29;;;;;;;21.15;10.90;;;5.80;99.90;;;;;;5095045;28;20070;-70
2021/11/04 06:25:54;;;;;;;35.53;11.02;;;5.70;99.90;;;;;;5095327;28;20127;-70
2021/11/04 06:28:20;;;;;;;68.72;13.10;;;5.70;99.90;;;;;;5094891;28;20040;-69
2021/11/04 06:30:45;;;;;;;88.15;14.30;;;5.70;99.90;;;;;;5094378;28;20392;-70
2021/11/04 06:33:11;;;;;;;43.65;12.65;;;5.70;99.90;;;;;;5094919;28;20067;-70
2021/11/04 06:35:37;;;;;;;17.00;10.27;;;5.70;99.90;;;;;;5094645;28;20458;-70
2021/11/04 06:38:02;;;;;;;96.40;14.18;;;5.60;99.90;;;;;;5094566;28;20054;-70
2021/11/04 06:40:28;;;;;;;66.50;13.60;;;5.60;99.90;;;;;;5094165;28;20130;-70
2021/11/04 06:42:54;;;;;;;42.22;12.23;;;5.60;99.90;;;;;;5094595;28;20392;-70
2021/11/04 06:45:19;;;;;;;71.40;12.85;;;5.50;99.90;;;;;;5094834;28;20039;-70
2021/11/04 06:47:51;;;;;;;30.70;11.05;;;5.40;99.90;;;;;;5094444;28;20075;-70
2021/11/04 06:50:23;;;;;;;47.55;12.35;;;5.50;99.90;;;;;;5094275;28;20114;-70
2021/11/04 06:53:06;;;;;;;36.58;13.07;;;5.50;99.90;;;;;;5094216;28;20191;-70
2021/11/04 06:55:34;;;;;;;21.27;12.00;;;5.50;99.90;;;;;;5094382;28;20032;-70
2021/11/04 06:58:02;;;;;;;20.45;12.00;;;5.50;99.90;;;;;;5093054;28;20040;-70
2021/11/04 07:00:33;;;;;;;22.75;12.60;;;5.60;99.90;;;;;;5093794;28;20036;-70
2021/11/04 07:03:16;;;;;;;38.03;11.15;;;5.70;99.90;;;;;;5094376;28;20131;-70
2021/11/04 07:05:44;;;;;;;43.90;12.25;;;5.60;99.90;;;;;;5092907;28;20048;-69
2021/11/04 07:08:22;;;;;;;25.00;10.20;;;5.60;99.90;;;;;;5094586;28;20040;-70
2021/11/04 07:10:48;;;;;;;40.25;11.57;;;5.60;99.90;;;;;;5093035;28;20504;-71
2021/11/04 07:13:15;;;;;;;18.52;10.00;;;5.60;99.90;;;;;;5093888;28;20573;-72
2021/11/04 07:15:45;;;;;;;16.73;9.75;;;5.60;99.90;;;;;;5092588;28;20052;-71
2021/11/04 07:18:11;;;;;;;16.05;9.60;;;5.50;99.90;;;;;;5093898;28;20051;-72
2021/11/04 07:20:38;;;;;;;13.93;8.55;;;5.60;99.90;;;;;;5094034;28;20373;-71
2021/11/04 07:23:07;;;;;;;15.98;9.95;;;5.60;99.90;;;;;;5092630;28;20496;-72
2021/11/04 07:25:33;;;;;;;28.40;11.10;;;5.60;99.90;;;;;;5093827;28;20040;-72
2021/11/04 07:28:03;;;;;;;18.08;10.65;;;5.60;99.90;;;;;;5092379;28;20093;-72
2021/11/04 07:30:30;;;;;;;56.83;11.70;;;5.60;99.90;;;;;;5092204;28;20071;-72
2021/11/04 07:33:01;;;;;;;28.13;11.07;;;5.70;99.90;;;;;;5092349;28;20043;-72
2021/11/04 07:35:37;;;;;;;17.35;9.88;;;5.70;99.90;;;;;;5094074;28;20062;-72
2021/11/04 07:38:06;;;;;;;13.52;8.35;;;5.70;99.90;;;;;;5093941;28;20044;-72
2021/11/04 07:40:32;;;;;;;20.73;10.40;;;5.70;99.90;;;;;;5092023;28;20036;-72
2021/11/04 07:42:59;;;;;;;20.75;10.65;;;5.80;99.90;;;;;;5092469;28;20133;-72
2021/11/04 07:45:26;;;;;;;22.90;11.00;;;5.80;99.90;;;;;;5092183;28;20522;-71
2021/11/04 07:47:52;;;;;;;13.88;9.05;;;5.80;99.90;;;;;;5093559;28;20040;-72
2021/11/04 07:50:20;;;;;;;14.00;9.18;;;5.80;99.90;;;;;;5093007;28;20051;-72
2021/11/04 07:52:47;;;;;;;15.43;9.20;;;5.80;99.90;;;;;;5093632;28;20093;-72
2021/11/04 07:55:14;;;;;;;15.85;9.07;;;5.80;99.90;;;;;;5093915;28;20046;-72
2021/11/04 07:57:40;;;;;;;15.55;9.25;;;5.90;99.90;;;;;;5093344;28;20587;-72
2021/11/04 08:00:14;;;;;;;19.33;9.43;;;5.90;99.90;;;;;;5091958;28;20119;-72
2021/11/04 08:02:40;;;;;;;15.55;10.05;;;5.90;99.90;;;;;;5093662;28;20109;-72
2021/11/04 08:05:07;;;;;;;20.25;9.90;;;5.90;99.90;;;;;;5093473;28;20130;-72
2021/11/04 08:07:35;;;;;;;14.13;8.73;;;5.90;99.90;;;;;;5092214;28;20036;-72
2021/11/04 08:10:02;;;;;;;16.00;9.73;;;5.90;99.90;;;;;;5093196;28;20040;-72
2021/11/04 08:12:28;;;;;;;20.95;9.32;;;5.90;99.90;;;;;;5093076;28;20040;-72
2021/11/04 08:14:53;;;;;;;14.90;9.32;;;5.90;99.90;;;;;;5092466;28;20036;-71
2021/11/04 08:17:19;;;;;;;32.28;10.50;;;5.90;99.90;;;;;;5093290;28;20555;-72
2021/11/04 08:19:44;;;;;;;36.03;10.48;;;5.90;99.90;;;;;;5091595;28;20097;-72
2021/11/04 08:22:10;;;;;;;20.63;10.13;;;5.90;99.90;;;;;;5091870;28;20087;-71
2021/11/04 08:24:36;;;;;;;14.57;8.98;;;5.90;99.90;;;;;;5093138;28;20044;-71
2021/11/04 08:27:01;;;;;;;17.67;8.50;;;5.90;99.90;;;;;;5093107;28;20073;-71
2021/11/04 08:29:27;;;;;;;17.33;8.63;;;5.90;99.90;;;;;;5091354;28;20043;-72
2021/11/04 08:31:53;;;;;;;22.40;9.70;;;5.90;99.90;;;;;;5091534;28;20044;-72
2021/11/04 08:34:18;;;;;;;20.50;9.35;;;5.80;99.90;;;;;;5092964;28;20033;-71
2021/11/04 08:36:44;;;;;;;81.55;12.27;;;5.90;99.90;;;;;;5092895;28;20089;-71
2021/11/04 08:39:12;;;;;;;14.70;9.13;;;5.90;99.90;;;;;;5092590;28;20488;-72
2021/11/04 08:41:38;;;;;;;42.88;11.25;;;5.90;99.90;;;;;;5094381;28;20048;-72
2021/11/04 08:44:04;;;;;;;15.35;10.35;;;6.00;99.90;;;;;;5097377;28;20131;-72
2021/11/04 08:46:30;;;;;;;27.60;10.65;;;6.00;99.90;;;;;;5095747;28;20048;-72
2021/11/04 08:48:56;;;;;;;33.40;11.23;;;6.00;99.90;;;;;;5096550;28;20503;-72
2021/11/04 08:51:22;;;;;;;17.13;9.88;;;6.10;99.90;;;;;;5095430;28;20123;-71
2021/11/04 08:53:48;;;;;;;48.25;12.85;;;6.10;99.90;;;;;;5096864;28;20111;-72
2021/11/04 08:56:13;;;;;;;22.27;13.27;;;6.10;99.90;;;;;;5096800;28;20051;-71
2021/11/04 08:58:39;;;;;;;56.85;16.55;;;6.10;99.90;;;;;;5096415;28;20036;-72
2021/11/04 09:01:05;;;;;;;26.30;14.52;;;6.10;99.90;;;;;;5095562;28;20060;-72
2021/11/04 09:03:32;;;;;;;37.25;14.32;;;6.10;99.90;;;;;;5096313;28;20451;-71
2021/11/04 09:05:58;;;;;;;25.88;14.02;;;6.20;99.90;;;;;;5096807;28;20032;-72
2021/11/04 09:08:24;;;;;;;76.88;19.33;;;6.30;99.90;;;;;;5095254;28;20088;-72
2021/11/04 09:10:49;;;;;;;48.55;17.80;;;6.20;99.90;;;;;;5095110;28;20111;-72
2021/11/04 09:13:16;;;;;;;37.90;16.77;;;6.30;99.90;;;;;;5096289;28;20198;-72
2021/11/04 09:15:41;;;;;;;33.22;16.08;;;6.40;99.90;;;;;;5095218;28;20134;-71
2021/11/04 09:18:07;;;;;;;26.75;15.15;;;6.40;99.90;;;;;;5094827;28;20119;-72
2021/11/04 09:20:34;;;;;;;25.17;13.75;;;6.50;99.90;;;;;;5095868;28;20043;-72
2021/11/04 09:23:00;;;;;;;27.95;13.60;;;6.30;99.90;;;;;;5095173;28;20043;-71
2021/11/04 09:25:26;;;;;;;28.50;13.98;;;6.50;99.90;;;;;;5094817;28;20442;-72
2021/11/04 09:27:56;;;;;;;36.40;15.38;;;6.50;99.90;;;;;;5096031;28;20111;-72
2021/11/04 09:30:22;;;;;;;35.38;16.25;;;6.60;99.90;;;;;;5095648;28;20115;-72
2021/11/04 09:32:49;;;;;;;28.45;14.48;;;6.60;99.90;;;;;;5096041;28;20097;-72
2021/11/04 09:35:16;;;;;;;20.65;13.30;;;6.60;99.90;;;;;;5095898;28;20396;-72
2021/11/04 09:37:42;;;;;;;23.35;14.23;;;6.70;99.90;;;;;;5095861;28;20036;-72
2021/11/04 09:40:09;;;;;;;32.85;15.90;;;6.70;99.90;;;;;;5096039;28;20036;-72
2021/11/04 09:42:35;;;;;;;25.45;14.40;;;6.80;99.90;;;;;;5095901;28;20052;-72
2021/11/04 09:45:02;;;;;;;63.10;17.42;;;6.70;99.90;;;;;;5094935;28;20506;-72
2021/11/04 09:47:30;;;;;;;35.72;17.88;;;6.60;99.90;;;;;;5095894;28;20048;-72
2021/11/04 09:49:57;;;;;;;28.30;16.15;;;6.50;99.90;;;;;;5095220;28;20407;-72
2021/11/04 09:52:27;;;;;;;31.65;16.45;;;6.50;99.90;;;;;;5095458;28;20048;-71
2021/11/04 09:54:54;;;;;;;27.08;16.73;;;6.60;99.90;;;;;;5095881;28;20439;-72
2021/11/04 09:57:24;;;;;;;26.98;15.70;;;6.60;99.90;;;;;;5095653;28;20032;-72
2021/11/04 09:59:51;;;;;;;31.02;16.45;;;6.60;99.90;;;;;;5093989;28;20047;-71
2021/11/04 10:02:20;;;;;;;26.58;16.25;;;6.70;99.90;;;;;;5095502;28;20109;-71
2021/11/04 10:04:46;;;;;;;30.58;17.52;;;6.70;99.90;;;;;;5095217;28;20039;-72
2021/11/04 10:07:14;;;;;;;40.03;18.60;;;6.80;99.90;;;;;;5095588;28;20048;-72
2021/11/04 10:09:40;;;;;;;31.08;17.33;;;6.80;99.90;;;;;;5095088;28;20044;-72
2021/11/04 10:12:14;;;;;;;47.60;21.20;;;7.00;99.90;;;;;;5095118;28;20125;-71
2021/11/04 10:14:41;;;;;;;109.20;29.42;;;6.90;99.90;;;;;;5095216;28;20040;-71
2021/11/04 10:17:27;;;;;;;45.25;24.42;;;6.90;99.90;;;;;;5095279;28;20032;-71
2021/11/04 10:19:53;;;;;;;37.33;22.73;;;7.00;99.90;;;;;;5094822;28;20063;-71
2021/11/04 10:22:26;;;;;;;44.78;23.42;;;7.10;99.90;;;;;;5094829;28;20047;-72
2021/11/04 10:24:54;;;;;;;36.47;20.63;;;7.20;99.90;;;;;;5095003;28;20044;-72
2021/11/04 10:27:35;;;;;;;53.13;24.00;;;7.20;99.90;;;;;;5095263;28;20047;-72
2021/11/04 10:30:05;;;;;;;37.55;21.52;;;7.30;99.90;;;;;;5094862;28;20043;-72
2021/11/04 10:32:35;;;;;;;41.80;23.27;;;7.30;99.90;;;;;;5095399;28;20059;-72
2021/11/04 10:35:07;;;;;;;41.17;23.38;;;7.40;99.90;;;;;;5095219;28;20032;-72
2021/11/04 10:37:42;;;;;;;34.17;21.27;;;7.40;99.90;;;;;;5094870;28;20361;-72
2021/11/04 10:40:14;;;;;;;38.35;20.20;;;7.50;99.90;;;;;;5094895;28;20063;-72
2021/11/04 10:43:09;;;;;;;29.38;18.23;;;7.50;99.90;;;;;;5095095;28;20036;-72
2021/11/04 10:45:35;;;;;;;35.30;20.10;;;7.50;99.90;;;;;;5077316;28;20091;-72
2021/11/04 10:48:21;;;;;;;29.13;18.40;;;7.60;99.90;;;;;;5094733;28;20121;-71
2021/11/04 10:50:47;;;;;;;28.42;17.98;;;7.70;99.90;;;;;;5093598;28;20035;-71
2021/11/04 10:53:20;;;;;;;33.17;19.50;;;7.70;99.90;;;;;;5094719;28;20040;-72
2021/11/04 10:55:49;;;;;;;36.17;21.52;;;7.70;99.90;;;;;;5094723;28;20040;-71
2021/11/04 10:58:57;;;;;;;37.33;23.35;;;7.80;99.90;;;;;;5094591;28;20039;-71
2021/11/04 11:01:27;;;;;;;35.42;21.15;;;7.80;99.90;;;;;;5045942;28;20063;-71
2021/11/04 11:04:07;;;;;;;34.78;21.60;;;7.90;99.90;;;;;;5093911;28;20040;-72
2021/11/04 11:06:39;;;;;;;36.97;22.35;;;7.90;99.90;;;;;;5094098;28;20477;-72
2021/11/04 11:09:08;;;;;;;39.95;23.23;;;8.00;99.90;;;;;;5093897;28;20068;-72
2021/11/04 11:11:37;;;;;;;40.85;24.65;;;8.10;99.90;;;;;;5094240;28;20146;-72
2021/11/04 11:14:03;;;;;;;45.08;25.27;;;8.10;99.90;;;;;;5094174;28;20036;-72
2021/11/04 11:16:29;;;;;;;40.83;25.10;;;8.00;99.90;;;;;;5094118;28;20039;-72
2021/11/04 11:18:59;;;;;;;38.88;25.00;;;8.00;99.90;;;;;;5093584;28;20024;-72
2021/11/04 11:21:29;;;;;;;41.92;25.13;;;7.90;99.90;;;;;;5093949;28;20088;-72
2021/11/04 11:23:57;;;;;;;44.50;26.63;;;7.90;99.90;;;;;;5092868;28;20480;-72
2021/11/04 11:26:25;;;;;;;51.00;27.38;;;7.90;99.90;;;;;;5093990;28;20396;-72
2021/11/04 11:28:56;;;;;;;47.70;26.48;;;8.00;99.90;;;;;;5093458;28;20036;-72
2021/11/04 11:31:25;;;;;;;41.65;25.90;;;7.90;99.90;;;;;;5093633;28;20043;-72
2021/11/04 11:34:19;;;;;;;44.20;25.60;;;7.90;99.90;;;;;;5093722;28;20044;-72
2021/11/04 11:37:03;;;;;;;;;;;8.00;99.90;;;;;;5094267;28;20040;-72
2021/11/04 11:39:55;;;;;;;;;;;8.00;99.90;;;;;;5093766;28;19923;-72
2021/11/04 11:42:21;;;;;;;40.05;22.52;;;8.10;99.90;;;;;;5089541;28;20268;-72
2021/11/04 11:44:54;;;;;;;47.38;26.63;;;8.10;99.90;;;;;;5092356;28;20052;-72
2021/11/04 11:47:37;;;;;;;42.47;23.58;;;8.10;99.90;;;;;;5094098;28;20136;-72
2021/11/04 11:50:26;;;;;;;44.65;25.45;;;8.20;99.90;;;;;;5093315;28;20040;-72
2021/11/04 11:53:03;;;;;;;45.42;25.63;;;8.20;99.90;;;;;;5093621;28;20373;-72
2021/11/04 11:55:47;;;;;;;42.38;24.95;;;8.20;99.90;;;;;;5093797;28;20047;-72
2021/11/04 11:58:31;;;;;;;;;;;8.30;99.90;;;;;;5093869;28;20503;-72
2021/11/04 12:01:18;;;;;;;44.20;22.13;;;8.30;99.90;;;;;;5093688;28;19973;-72
2021/11/04 12:03:54;;;;;;;33.67;20.38;;;8.40;99.90;;;;;;5093529;28;20132;-72
2021/11/04 12:06:19;;;;;;;34.25;19.80;;;8.40;99.90;;;;;;5091934;28;20419;-72
2021/11/04 12:08:56;;;;;;;30.20;17.45;;;8.50;99.90;;;;;;5093152;28;20044;-72
2021/11/04 12:11:34;;;;;;;24.92;15.68;;;8.50;99.90;;;;;;5093411;28;20119;-72
2021/11/04 12:14:18;;;;;;;23.73;14.05;;;8.60;99.90;;;;;;5091974;28;20400;-72
2021/11/04 12:16:59;;;;;;;27.25;15.73;;;8.60;99.90;;;;;;5094753;28;20052;-72
2021/11/04 12:19:40;;;;;;;20.90;13.57;;;8.70;99.90;;;;;;5096993;28;20472;-72
2021/11/04 12:22:37;;;;;;;23.48;13.27;;;8.70;99.90;;;;;;5096120;28;20117;-72
2021/11/04 12:25:12;;;;;;;16.58;10.38;;;8.80;99.90;;;;;;5093901;28;20056;-72
2021/11/04 12:27:40;;;;;;;17.10;10.90;;;8.80;99.90;;;;;;5097276;28;20040;-70
2021/11/04 12:30:14;;;;;;;12.75;8.35;;;8.90;99.90;;;;;;5095468;28;20102;-72
2021/11/04 12:32:40;;;;;;;12.57;7.78;;;9.20;99.90;;;;;;5096249;28;20054;-73
2021/11/04 12:35:06;;;;;;;14.70;8.32;;;9.40;99.90;;;;;;5097668;28;20468;-73
2021/11/04 12:37:33;;;;;;;12.70;7.50;;;9.50;99.90;;;;;;5096672;28;20085;-73
2021/11/04 12:40:07;;;;;;;9.80;6.72;;;9.60;99.90;;;;;;5096804;28;20046;-74
2021/11/04 12:42:33;;;;;;;10.73;6.60;;;9.70;99.90;;;;;;5095412;28;20044;-73
2021/11/04 12:44:58;;;;;;;11.65;7.35;;;9.90;99.90;;;;;;5096540;28;20036;-73